sensor_id;sensor_type;location;lat;lon;timestamp;pressure;altitude;pressure_sealevel;temperature;humidity
6464;BME280;3265;42.694;23.282;2023-03-15T00:01:20;93689.38;;;7.24;54.74
6464;BME280;3265;42.694;23.282;2023-03-15T00:03:50;93687.09;;;7.16;54.83
6464;BME280;3265;42.694;23.282;2023-03-15T00:06:20;93684.03;;;7.07;55.11
6464;BME280;3265;42.694;23.282;2023-03-15T00:08:46;93675.81;;;6.99;55.60
6464;BME280;3265;42.694;23.282;2023-03-15T00:11:15;93668.84;;;6.99;56.04
6464;BME280;3265;42.694;23.282;2023-03-15T00:13:42;93656.50;;;6.90;56.50
6464;BME280;3265;42.694;23.282;2023-03-15T00:16:10;93682.41;;;6.83;55.10
6464;BME280;3265;42.694;23.282;2023-03-15T00:18:43;93686.16;;;6.69;55.15
6464;BME280;3265;42.694;23.282;2023-03-15T00:21:11;93664.72;;;6.50;55.40
6464;BME280;3265;42.694;23.282;2023-03-15T00:23:38;93675.72;;;6.46;56.45
6464;BME280;3265;42.694;23.282;2023-03-15T00:26:05;93670.56;;;6.46;56.93
6464;BME280;3265;42.694;23.282;2023-03-15T00:28:33;93644.59;;;6.41;56.44
6464;BME280;3265;42.694;23.282;2023-03-15T00:31:04;93672.09;;;6.65;56.84
6464;BME280;3265;42.694;23.282;2023-03-15T00:33:31;93660.19;;;6.64;56.90
6464;BME280;3265;42.694;23.282;2023-03-15T00:36:02;93656.88;;;6.75;56.54
6464;BME280;3265;42.694;23.282;2023-03-15T00:38:29;93663.28;;;6.84;54.93
6464;BME280;3265;42.694;23.282;2023-03-15T00:40:56;93664.00;;;6.91;54.83
6464;BME280;3265;42.694;23.282;2023-03-15T00:43:23;93664.34;;;6.95;55.25
6464;BME280;3265;42.694;23.282;2023-03-15T00:45:51;93666.34;;;6.93;55.10
6464;BME280;3265;42.694;23.282;2023-03-15T00:48:18;93656.63;;;6.95;55.74
6464;BME280;3265;42.694;23.282;2023-03-15T00:50:45;93625.47;;;6.78;56.05
6464;BME280;3265;42.694;23.282;2023-03-15T00:53:12;93644.63;;;7.00;56.25
6464;BME280;3265;42.694;23.282;2023-03-15T00:55:39;93636.50;;;6.97;56.30
6464;BME280;3265;42.694;23.282;2023-03-15T00:58:07;93625.63;;;6.95;56.64
6464;BME280;3265;42.694;23.282;2023-03-15T01:00:34;93645.88;;;7.09;56.98
6464;BME280;3265;42.694;23.282;2023-03-15T01:03:04;93629.66;;;7.02;56.98
6464;BME280;3265;42.694;23.282;2023-03-15T01:05:30;93632.16;;;7.09;56.11
6464;BME280;3265;42.694;23.282;2023-03-15T01:07:57;93631.84;;;7.17;56.31
6464;BME280;3265;42.694;23.282;2023-03-15T01:10:24;93628.91;;;7.13;56.56
6464;BME280;3265;42.694;23.282;2023-03-15T01:12:51;93618.09;;;7.05;57.18
6464;BME280;3265;42.694;23.282;2023-03-15T01:15:18;93624.84;;;7.06;57.10
6464;BME280;3265;42.694;23.282;2023-03-15T01:17:44;93610.25;;;7.00;56.59
6464;BME280;3265;42.694;23.282;2023-03-15T01:20:14;93623.97;;;7.12;56.81
6464;BME280;3265;42.694;23.282;2023-03-15T01:22:41;93625.09;;;7.16;56.90
6464;BME280;3265;42.694;23.282;2023-03-15T01:25:08;93613.31;;;7.20;56.12
6464;BME280;3265;42.694;23.282;2023-03-15T01:27:35;93592.53;;;7.15;56.20
6464;BME280;3265;42.694;23.282;2023-03-15T01:30:04;93587.81;;;7.12;55.55
6464;BME280;3265;42.694;23.282;2023-03-15T01:32:31;93598.94;;;7.24;56.14
6464;BME280;3265;42.694;23.282;2023-03-15T01:34:58;93591.75;;;7.14;56.86
6464;BME280;3265;42.694;23.282;2023-03-15T01:37:26;93603.88;;;7.14;57.16
6464;BME280;3265;42.694;23.282;2023-03-15T01:39:54;93601.41;;;7.19;57.12
6464;BME280;3265;42.694;23.282;2023-03-15T01:42:21;93597.25;;;7.18;57.12
6464;BME280;3265;42.694;23.282;2023-03-15T01:44:50;93583.09;;;7.09;57.76
6464;BME280;3265;42.694;23.282;2023-03-15T01:47:18;93601.75;;;7.22;57.75
6464;BME280;3265;42.694;23.282;2023-03-15T01:49:46;93596.38;;;7.24;57.02
6464;BME280;3265;42.694;23.282;2023-03-15T01:52:18;93579.19;;;7.18;56.83
6464;BME280;3265;42.694;23.282;2023-03-15T01:54:49;93567.03;;;7.07;57.65
6464;BME280;3265;42.694;23.282;2023-03-15T01:57:22;93576.47;;;7.13;57.89
6464;BME280;3265;42.694;23.282;2023-03-15T01:59:52;93582.56;;;7.18;58.32
6464;BME280;3265;42.694;23.282;2023-03-15T02:02:23;93558.69;;;7.05;58.25
6464;BME280;3265;42.694;23.282;2023-03-15T02:04:54;93564.78;;;7.10;57.22
6464;BME280;3265;42.694;23.282;2023-03-15T02:07:23;93552.31;;;7.07;57.55
6464;BME280;3265;42.694;23.282;2023-03-15T02:09:59;93557.59;;;7.12;57.96
6464;BME280;3265;42.694;23.282;2023-03-15T02:12:29;93566.25;;;7.18;58.42
6464;BME280;3265;42.694;23.282;2023-03-15T02:14:58;93513.78;;;6.94;58.37
6464;BME280;3265;42.694;23.282;2023-03-15T02:17:33;93555.13;;;7.17;58.70
6464;BME280;3265;42.694;23.282;2023-03-15T02:20:10;93544.25;;;7.04;59.32
6464;BME280;3265;42.694;23.282;2023-03-15T02:22:46;93546.59;;;7.05;59.66
6464;BME280;3265;42.694;23.282;2023-03-15T02:25:21;93544.78;;;7.06;60.27
6464;BME280;3265;42.694;23.282;2023-03-15T02:27:53;93542.22;;;7.06;59.72
6464;BME280;3265;42.694;23.282;2023-03-15T02:30:21;93536.59;;;6.97;59.45
6464;BME280;3265;42.694;23.282;2023-03-15T02:32:48;93535.25;;;6.95;60.63
6464;BME280;3265;42.694;23.282;2023-03-15T02:35:22;93536.03;;;6.95;61.19
6464;BME280;3265;42.694;23.282;2023-03-15T02:37:49;93542.31;;;6.99;61.55
6464;BME280;3265;42.694;23.282;2023-03-15T02:40:18;93540.50;;;6.88;61.90
6464;BME280;3265;42.694;23.282;2023-03-15T02:42:46;93550.38;;;6.91;61.73
6464;BME280;3265;42.694;23.282;2023-03-15T02:45:15;93543.88;;;6.89;62.14
6464;BME280;3265;42.694;23.282;2023-03-15T02:47:43;93524.00;;;6.77;62.21
6464;BME280;3265;42.694;23.282;2023-03-15T02:50:11;93525.22;;;6.75;62.32
6464;BME280;3265;42.694;23.282;2023-03-15T02:52:38;93523.97;;;6.66;62.15
6464;BME280;3265;42.694;23.282;2023-03-15T02:55:06;93532.28;;;6.68;62.37
6464;BME280;3265;42.694;23.282;2023-03-15T02:57:34;93527.91;;;6.68;62.18
6464;BME280;3265;42.694;23.282;2023-03-15T03:00:01;93523.72;;;6.67;61.89
6464;BME280;3265;42.694;23.282;2023-03-15T03:02:38;93522.47;;;6.58;61.52
6464;BME280;3265;42.694;23.282;2023-03-15T03:05:05;93516.84;;;6.50;61.49
6464;BME280;3265;42.694;23.282;2023-03-15T03:07:32;93497.97;;;6.26;61.81
6464;BME280;3265;42.694;23.282;2023-03-15T03:09:59;93496.63;;;6.35;62.29
6464;BME280;3265;42.694;23.282;2023-03-15T03:12:26;93505.16;;;6.36;62.95
6464;BME280;3265;42.694;23.282;2023-03-15T03:14:53;93508.31;;;6.38;62.20
6464;BME280;3265;42.694;23.282;2023-03-15T03:17:21;93501.22;;;6.33;62.43
6464;BME280;3265;42.694;23.282;2023-03-15T03:19:49;93508.09;;;6.39;63.91
6464;BME280;3265;42.694;23.282;2023-03-15T03:22:16;93503.16;;;6.38;64.83
6464;BME280;3265;42.694;23.282;2023-03-15T03:24:44;93500.78;;;6.36;64.07
6464;BME280;3265;42.694;23.282;2023-03-15T03:27:11;93487.72;;;6.19;64.22
6464;BME280;3265;42.694;23.282;2023-03-15T03:29:39;93493.44;;;6.21;64.82
6464;BME280;3265;42.694;23.282;2023-03-15T03:32:07;93486.03;;;6.13;65.64
6464;BME280;3265;42.694;23.282;2023-03-15T03:34:34;93497.53;;;6.29;65.78
6464;BME280;3265;42.694;23.282;2023-03-15T03:37:02;93490.53;;;6.29;64.35
6464;BME280;3265;42.694;23.282;2023-03-15T03:39:29;93471.91;;;6.16;64.80
6464;BME280;3265;42.694;23.282;2023-03-15T03:41:56;93479.78;;;6.33;64.55
6464;BME280;3265;42.694;23.282;2023-03-15T03:44:23;93474.88;;;6.31;64.27
6464;BME280;3265;42.694;23.282;2023-03-15T03:46:49;93477.56;;;6.36;64.21
6464;BME280;3265;42.694;23.282;2023-03-15T03:49:16;93482.94;;;6.35;64.18
6464;BME280;3265;42.694;23.282;2023-03-15T03:51:43;93483.84;;;6.28;65.29
6464;BME280;3265;42.694;23.282;2023-03-15T03:54:11;93483.94;;;6.34;65.89
6464;BME280;3265;42.694;23.282;2023-03-15T03:56:38;93465.91;;;6.34;65.59
6464;BME280;3265;42.694;23.282;2023-03-15T03:59:05;93470.50;;;6.32;66.14
6464;BME280;3265;42.694;23.282;2023-03-15T04:01:31;93450.47;;;6.15;66.38
6464;BME280;3265;42.694;23.282;2023-03-15T04:03:59;93460.72;;;6.22;67.27
6464;BME280;3265;42.694;23.282;2023-03-15T04:06:25;93454.88;;;6.26;66.88
6464;BME280;3265;42.694;23.282;2023-03-15T04:08:52;93453.19;;;6.32;66.56
6464;BME280;3265;42.694;23.282;2023-03-15T04:11:20;93452.44;;;6.32;66.77
6464;BME280;3265;42.694;23.282;2023-03-15T04:13:51;93457.16;;;6.35;66.49
6464;BME280;3265;42.694;23.282;2023-03-15T04:16:17;93452.00;;;6.35;66.05
6464;BME280;3265;42.694;23.282;2023-03-15T04:18:44;93456.38;;;6.46;65.55
6464;BME280;3265;42.694;23.282;2023-03-15T04:21:12;93463.44;;;6.50;65.10
6464;BME280;3265;42.694;23.282;2023-03-15T04:23:39;93448.84;;;6.33;64.36
6464;BME280;3265;42.694;23.282;2023-03-15T04:26:05;93460.41;;;6.42;64.64
6464;BME280;3265;42.694;23.282;2023-03-15T04:28:34;93455.34;;;6.35;63.93
6464;BME280;3265;42.694;23.282;2023-03-15T04:31:02;93455.66;;;6.27;63.70
6464;BME280;3265;42.694;23.282;2023-03-15T04:33:29;93451.28;;;6.27;64.84
6464;BME280;3265;42.694;23.282;2023-03-15T04:35:56;93452.22;;;6.33;63.77
6464;BME280;3265;42.694;23.282;2023-03-15T04:38:23;93455.56;;;6.34;63.02
6464;BME280;3265;42.694;23.282;2023-03-15T04:40:52;93444.81;;;6.37;62.09
6464;BME280;3265;42.694;23.282;2023-03-15T04:43:20;93451.31;;;6.39;63.32
6464;BME280;3265;42.694;23.282;2023-03-15T04:45:50;93442.00;;;6.38;63.11
6464;BME280;3265;42.694;23.282;2023-03-15T04:48:17;93452.22;;;6.33;62.46
6464;BME280;3265;42.694;23.282;2023-03-15T04:50:44;93455.94;;;6.37;62.07
6464;BME280;3265;42.694;23.282;2023-03-15T04:53:10;93440.78;;;6.29;62.02
6464;BME280;3265;42.694;23.282;2023-03-15T04:55:37;93449.41;;;6.35;60.76
6464;BME280;3265;42.694;23.282;2023-03-15T04:58:04;93445.81;;;6.36;60.19
6464;BME280;3265;42.694;23.282;2023-03-15T05:00:31;93430.78;;;6.33;60.67
6464;BME280;3265;42.694;23.282;2023-03-15T05:02:59;93443.50;;;6.46;59.53
6464;BME280;3265;42.694;23.282;2023-03-15T05:05:26;93448.22;;;6.49;59.72
6464;BME280;3265;42.694;23.282;2023-03-15T05:07:53;93453.03;;;6.45;60.73
6464;BME280;3265;42.694;23.282;2023-03-15T05:10:20;93450.88;;;6.42;60.48
6464;BME280;3265;42.694;23.282;2023-03-15T05:12:47;93452.75;;;6.35;61.25
6464;BME280;3265;42.694;23.282;2023-03-15T05:15:14;93452.13;;;6.40;60.93
6464;BME280;3265;42.694;23.282;2023-03-15T05:17:41;93453.56;;;6.47;60.26
6464;BME280;3265;42.694;23.282;2023-03-15T05:20:14;93460.78;;;6.57;60.70
6464;BME280;3265;42.694;23.282;2023-03-15T05:22:41;93435.19;;;6.55;60.23
6464;BME280;3265;42.694;23.282;2023-03-15T05:25:09;93446.53;;;6.66;60.94
6464;BME280;3265;42.694;23.282;2023-03-15T05:27:36;93440.78;;;6.64;60.53
6464;BME280;3265;42.694;23.282;2023-03-15T05:30:04;93446.53;;;6.66;59.52
6464;BME280;3265;42.694;23.282;2023-03-15T05:32:32;93428.81;;;6.58;58.32
6464;BME280;3265;42.694;23.282;2023-03-15T05:35:03;93425.53;;;6.62;58.48
6464;BME280;3265;42.694;23.282;2023-03-15T05:37:32;93435.09;;;6.73;57.84
6464;BME280;3265;42.694;23.282;2023-03-15T05:40:00;93437.78;;;6.78;57.41
6464;BME280;3265;42.694;23.282;2023-03-15T05:42:26;93444.06;;;6.82;57.30
6464;BME280;3265;42.694;23.282;2023-03-15T05:44:54;93421.63;;;6.83;56.25
6464;BME280;3265;42.694;23.282;2023-03-15T05:47:22;93443.06;;;6.95;56.05
6464;BME280;3265;42.694;23.282;2023-03-15T05:49:49;93428.47;;;7.01;55.22
6464;BME280;3265;42.694;23.282;2023-03-15T05:52:16;93390.19;;;6.86;54.81
6464;BME280;3265;42.694;23.282;2023-03-15T05:54:45;93432.72;;;7.07;54.19
6464;BME280;3265;42.694;23.282;2023-03-15T05:57:11;93439.22;;;7.09;54.32
6464;BME280;3265;42.694;23.282;2023-03-15T05:59:38;93436.19;;;7.12;54.04
6464;BME280;3265;42.694;23.282;2023-03-15T06:02:05;93427.13;;;7.10;53.36
6464;BME280;3265;42.694;23.282;2023-03-15T06:04:32;93428.44;;;7.12;53.59
6464;BME280;3265;42.694;23.282;2023-03-15T06:07:00;93449.09;;;7.24;52.41
6464;BME280;3265;42.694;23.282;2023-03-15T06:09:27;93440.31;;;7.25;52.71
6464;BME280;3265;42.694;23.282;2023-03-15T06:11:55;93432.44;;;7.31;51.76
6464;BME280;3265;42.694;23.282;2023-03-15T06:14:23;93443.00;;;7.41;51.20
6464;BME280;3265;42.694;23.282;2023-03-15T06:16:50;93429.59;;;7.44;51.02
6464;BME280;3265;42.694;23.282;2023-03-15T06:19:18;93442.28;;;7.58;51.21
6464;BME280;3265;42.694;23.282;2023-03-15T06:21:45;93445.19;;;7.61;51.09
6464;BME280;3265;42.694;23.282;2023-03-15T06:24:12;93439.69;;;7.58;49.71
6464;BME280;3265;42.694;23.282;2023-03-15T06:26:39;93454.06;;;7.65;49.33
6464;BME280;3265;42.694;23.282;2023-03-15T06:29:07;93449.75;;;7.71;48.97
6464;BME280;3265;42.694;23.282;2023-03-15T06:31:34;93445.16;;;7.73;49.20
6464;BME280;3265;42.694;23.282;2023-03-15T06:34:01;93445.25;;;7.78;49.16
6464;BME280;3265;42.694;23.282;2023-03-15T06:36:28;93428.41;;;7.75;48.92
6464;BME280;3265;42.694;23.282;2023-03-15T06:38:56;93423.50;;;7.90;48.47
6464;BME280;3265;42.694;23.282;2023-03-15T06:41:22;93426.88;;;7.91;48.76
6464;BME280;3265;42.694;23.282;2023-03-15T06:43:49;93439.91;;;7.96;47.49
6464;BME280;3265;42.694;23.282;2023-03-15T06:46:17;93436.84;;;7.99;47.73
6464;BME280;3265;42.694;23.282;2023-03-15T06:48:44;93430.03;;;7.93;48.27
6464;BME280;3265;42.694;23.282;2023-03-15T06:51:11;93427.19;;;7.94;48.27
6464;BME280;3265;42.694;23.282;2023-03-15T06:53:38;93421.81;;;7.96;47.79
6464;BME280;3265;42.694;23.282;2023-03-15T06:56:05;93432.44;;;7.99;47.66
6464;BME280;3265;42.694;23.282;2023-03-15T06:58:32;93435.22;;;8.10;48.17
6464;BME280;3265;42.694;23.282;2023-03-15T07:00:58;93430.13;;;8.15;47.51
6464;BME280;3265;42.694;23.282;2023-03-15T07:03:27;93419.31;;;8.18;47.97
6464;BME280;3265;42.694;23.282;2023-03-15T07:05:54;93425.00;;;8.31;47.51
6464;BME280;3265;42.694;23.282;2023-03-15T07:08:21;93425.41;;;8.40;47.69
6464;BME280;3265;42.694;23.282;2023-03-15T07:10:48;93430.22;;;8.48;46.86
6464;BME280;3265;42.694;23.282;2023-03-15T07:13:16;93424.00;;;8.49;47.20
6464;BME280;3265;42.694;23.282;2023-03-15T07:15:43;93414.44;;;8.49;47.41
6464;BME280;3265;42.694;23.282;2023-03-15T07:18:10;93426.91;;;8.52;46.69
6464;BME280;3265;42.694;23.282;2023-03-15T07:20:38;93423.28;;;8.70;46.32
6464;BME280;3265;42.694;23.282;2023-03-15T07:23:05;93424.47;;;8.79;46.82
6464;BME280;3265;42.694;23.282;2023-03-15T07:25:32;93427.94;;;8.68;46.30
6464;BME280;3265;42.694;23.282;2023-03-15T07:27:58;93431.22;;;8.64;46.08
6464;BME280;3265;42.694;23.282;2023-03-15T07:30:25;93434.59;;;8.64;45.55
6464;BME280;3265;42.694;23.282;2023-03-15T07:32:52;93437.19;;;8.64;46.48
6464;BME280;3265;42.694;23.282;2023-03-15T07:35:19;93423.75;;;8.67;46.56
6464;BME280;3265;42.694;23.282;2023-03-15T07:37:47;93405.00;;;8.77;45.98
6464;BME280;3265;42.694;23.282;2023-03-15T07:40:14;93412.91;;;8.87;45.72
6464;BME280;3265;42.694;23.282;2023-03-15T07:42:41;93418.03;;;8.82;46.39
6464;BME280;3265;42.694;23.282;2023-03-15T07:45:09;93418.47;;;8.95;46.13
6464;BME280;3265;42.694;23.282;2023-03-15T07:47:35;93432.75;;;9.15;45.67
6464;BME280;3265;42.694;23.282;2023-03-15T07:50:03;93420.63;;;9.20;45.54
6464;BME280;3265;42.694;23.282;2023-03-15T07:52:30;93421.06;;;9.34;44.96
6464;BME280;3265;42.694;23.282;2023-03-15T07:54:58;93409.25;;;9.43;44.79
6464;BME280;3265;42.694;23.282;2023-03-15T07:57:25;93409.00;;;9.44;44.97
6464;BME280;3265;42.694;23.282;2023-03-15T07:59:52;93393.88;;;9.36;45.22
6464;BME280;3265;42.694;23.282;2023-03-15T08:02:18;93405.28;;;9.57;45.55
6464;BME280;3265;42.694;23.282;2023-03-15T08:04:45;93404.66;;;9.50;45.04
6464;BME280;3265;42.694;23.282;2023-03-15T08:07:15;93396.81;;;9.45;45.48
6464;BME280;3265;42.694;23.282;2023-03-15T08:09:41;93387.28;;;9.50;45.24
6464;BME280;3265;42.694;23.282;2023-03-15T08:12:10;93413.75;;;9.74;45.84
6464;BME280;3265;42.694;23.282;2023-03-15T08:14:37;93406.94;;;9.68;44.28
6464;BME280;3265;42.694;23.282;2023-03-15T08:17:04;93394.63;;;9.80;46.00
6464;BME280;3265;42.694;23.282;2023-03-15T08:19:31;93376.81;;;9.89;44.95
6464;BME280;3265;42.694;23.282;2023-03-15T08:21:58;93386.66;;;9.87;44.66
6464;BME280;3265;42.694;23.282;2023-03-15T08:24:25;93392.75;;;10.02;44.03
6464;BME280;3265;42.694;23.282;2023-03-15T08:26:51;93401.03;;;10.21;43.70
6464;BME280;3265;42.694;23.282;2023-03-15T08:29:20;93396.72;;;10.37;44.06
6464;BME280;3265;42.694;23.282;2023-03-15T08:31:47;93386.13;;;10.38;43.72
6464;BME280;3265;42.694;23.282;2023-03-15T08:34:13;93392.38;;;10.42;43.61
6464;BME280;3265;42.694;23.282;2023-03-15T08:36:40;93374.25;;;10.47;43.66
6464;BME280;3265;42.694;23.282;2023-03-15T08:39:07;93380.56;;;10.61;44.82
6464;BME280;3265;42.694;23.282;2023-03-15T08:41:34;93383.25;;;10.76;43.20
6464;BME280;3265;42.694;23.282;2023-03-15T08:44:01;93387.22;;;10.84;44.15
6464;BME280;3265;42.694;23.282;2023-03-15T08:46:29;93377.44;;;11.01;42.71
6464;BME280;3265;42.694;23.282;2023-03-15T08:48:57;93376.22;;;11.14;42.67
6464;BME280;3265;42.694;23.282;2023-03-15T08:51:24;93367.59;;;11.08;42.83
6464;BME280;3265;42.694;23.282;2023-03-15T08:53:51;93387.19;;;11.26;41.49
6464;BME280;3265;42.694;23.282;2023-03-15T08:56:18;93383.28;;;11.28;42.65
6464;BME280;3265;42.694;23.282;2023-03-15T08:58:45;93382.84;;;11.36;42.61
6464;BME280;3265;42.694;23.282;2023-03-15T09:01:13;93389.34;;;11.44;43.35
6464;BME280;3265;42.694;23.282;2023-03-15T09:03:41;93382.34;;;11.50;44.09
6464;BME280;3265;42.694;23.282;2023-03-15T09:06:08;93379.75;;;11.55;42.76
6464;BME280;3265;42.694;23.282;2023-03-15T09:08:35;93366.50;;;11.56;43.32
6464;BME280;3265;42.694;23.282;2023-03-15T09:11:02;93389.75;;;11.78;43.29
6464;BME280;3265;42.694;23.282;2023-03-15T09:13:29;93379.91;;;11.85;43.55
6464;BME280;3265;42.694;23.282;2023-03-15T09:15:56;93387.72;;;11.85;42.70
6464;BME280;3265;42.694;23.282;2023-03-15T09:18:24;93376.22;;;11.71;42.88
6464;BME280;3265;42.694;23.282;2023-03-15T09:20:52;93378.81;;;11.71;43.58
6464;BME280;3265;42.694;23.282;2023-03-15T09:23:19;93392.06;;;11.69;44.43
6464;BME280;3265;42.694;23.282;2023-03-15T09:25:45;93385.50;;;11.57;43.07
6464;BME280;3265;42.694;23.282;2023-03-15T09:28:12;93386.31;;;11.62;43.27
6464;BME280;3265;42.694;23.282;2023-03-15T09:30:41;93382.94;;;11.67;43.24
6464;BME280;3265;42.694;23.282;2023-03-15T09:33:08;93373.53;;;11.51;43.24
6464;BME280;3265;42.694;23.282;2023-03-15T09:35:39;93384.81;;;11.71;42.67
6464;BME280;3265;42.694;23.282;2023-03-15T09:38:07;93367.41;;;11.87;42.76
6464;BME280;3265;42.694;23.282;2023-03-15T09:40:39;93368.47;;;11.96;42.86
6464;BME280;3265;42.694;23.282;2023-03-15T09:43:21;93366.69;;;12.12;42.89
6464;BME280;3265;42.694;23.282;2023-03-15T09:46:04;93372.69;;;12.47;42.43
6464;BME280;3265;42.694;23.282;2023-03-15T09:48:39;93371.13;;;12.51;42.01
6464;BME280;3265;42.694;23.282;2023-03-15T09:51:09;93357.03;;;12.47;41.58
6464;BME280;3265;42.694;23.282;2023-03-15T09:53:44;93349.22;;;12.22;41.75
6464;BME280;3265;42.694;23.282;2023-03-15T09:56:20;93338.28;;;12.05;42.05
6464;BME280;3265;42.694;23.282;2023-03-15T09:58:49;93339.31;;;12.04;42.50
6464;BME280;3265;42.694;23.282;2023-03-15T10:01:18;93345.31;;;12.00;42.30
6464;BME280;3265;42.694;23.282;2023-03-15T10:03:48;93355.69;;;11.84;42.84
6464;BME280;3265;42.694;23.282;2023-03-15T10:06:18;93355.69;;;11.74;42.47
6464;BME280;3265;42.694;23.282;2023-03-15T10:08:50;93364.50;;;11.73;43.08
6464;BME280;3265;42.694;23.282;2023-03-15T10:11:23;93359.59;;;11.77;42.84
6464;BME280;3265;42.694;23.282;2023-03-15T10:14:02;93365.88;;;11.96;43.36
6464;BME280;3265;42.694;23.282;2023-03-15T10:16:38;93354.66;;;11.85;42.87
6464;BME280;3265;42.694;23.282;2023-03-15T10:19:13;93355.72;;;11.94;42.96
6464;BME280;3265;42.694;23.282;2023-03-15T10:21:49;93356.25;;;12.22;42.79
6464;BME280;3265;42.694;23.282;2023-03-15T10:24:24;93357.31;;;12.56;42.01
6464;BME280;3265;42.694;23.282;2023-03-15T10:26:55;93355.72;;;12.70;41.62
6464;BME280;3265;42.694;23.282;2023-03-15T10:29:26;93352.84;;;12.87;40.93
6464;BME280;3265;42.694;23.282;2023-03-15T10:31:53;93347.94;;;12.55;41.36
6464;BME280;3265;42.694;23.282;2023-03-15T10:34:21;93341.44;;;12.37;41.70
6464;BME280;3265;42.694;23.282;2023-03-15T10:36:50;93343.50;;;12.50;41.68
6464;BME280;3265;42.694;23.282;2023-03-15T10:39:21;93341.94;;;12.44;41.75
6464;BME280;3265;42.694;23.282;2023-03-15T10:41:49;93353.16;;;12.40;42.51
6464;BME280;3265;42.694;23.282;2023-03-15T10:44:18;93347.41;;;12.18;42.43
6464;BME280;3265;42.694;23.282;2023-03-15T10:47:00;93351.56;;;12.24;42.74
6464;BME280;3265;42.694;23.282;2023-03-15T10:49:34;93351.84;;;12.27;42.36
6464;BME280;3265;42.694;23.282;2023-03-15T10:52:02;93335.97;;;12.29;42.27
6464;BME280;3265;42.694;23.282;2023-03-15T10:54:32;93345.84;;;12.27;42.55
6464;BME280;3265;42.694;23.282;2023-03-15T10:57:02;93343.00;;;12.28;42.43
6464;BME280;3265;42.694;23.282;2023-03-15T10:59:31;93352.38;;;12.29;42.45
6464;BME280;3265;42.694;23.282;2023-03-15T11:02:18;93338.03;;;12.17;42.40
6464;BME280;3265;42.694;23.282;2023-03-15T11:04:49;93333.84;;;12.16;42.22
6464;BME280;3265;42.694;23.282;2023-03-15T11:07:16;93340.63;;;12.17;42.25
6464;BME280;3265;42.694;23.282;2023-03-15T11:09:51;93335.16;;;12.18;42.56
6464;BME280;3265;42.694;23.282;2023-03-15T11:12:21;93335.94;;;12.19;42.73
6464;BME280;3265;42.694;23.282;2023-03-15T11:14:55;93332.31;;;12.20;42.79
6464;BME280;3265;42.694;23.282;2023-03-15T11:17:27;93338.78;;;12.12;42.83
6464;BME280;3265;42.694;23.282;2023-03-15T11:19:56;93327.59;;;12.22;42.73
6464;BME280;3265;42.694;23.282;2023-03-15T11:22:24;93331.00;;;12.17;42.35
6464;BME280;3265;42.694;23.282;2023-03-15T11:24:52;93331.75;;;12.13;42.65
6464;BME280;3265;42.694;23.282;2023-03-15T11:27:21;93333.84;;;12.16;43.03
6464;BME280;3265;42.694;23.282;2023-03-15T11:29:50;93342.97;;;12.08;42.51
6464;BME280;3265;42.694;23.282;2023-03-15T11:32:20;93340.38;;;12.08;42.49
6464;BME280;3265;42.694;23.282;2023-03-15T11:34:54;93335.91;;;12.04;42.79
6464;BME280;3265;42.694;23.282;2023-03-15T11:37:25;93328.91;;;11.99;43.26
6464;BME280;3265;42.694;23.282;2023-03-15T11:39:58;93320.31;;;11.88;44.95
6464;BME280;3265;42.694;23.282;2023-03-15T11:42:34;93307.53;;;11.77;47.55
6464;BME280;3265;42.694;23.282;2023-03-15T11:45:12;93305.88;;;11.56;49.60
6464;BME280;3265;42.694;23.282;2023-03-15T11:47:46;93315.97;;;11.37;51.38
6464;BME280;3265;42.694;23.282;2023-03-15T11:50:15;93326.13;;;11.38;50.97
6464;BME280;3265;42.694;23.282;2023-03-15T11:52:47;93284.16;;;11.10;50.52
6464;BME280;3265;42.694;23.282;2023-03-15T11:55:19;93301.06;;;11.12;52.30
6464;BME280;3265;42.694;23.282;2023-03-15T11:57:48;93320.34;;;11.21;52.17
6464;BME280;3265;42.694;23.282;2023-03-15T12:03:37;93310.16;;;11.15;53.62
6464;BME280;3265;42.694;23.282;2023-03-15T12:06:34;93288.03;;;11.02;52.32
6464;BME280;3265;42.694;23.282;2023-03-15T12:09:39;93306.53;;;11.11;52.79
6464;BME280;3265;42.694;23.282;2023-03-15T12:12:34;93309.88;;;11.11;52.85
6464;BME280;3265;42.694;23.282;2023-03-15T12:15:03;93298.44;;;11.07;52.94
6464;BME280;3265;42.694;23.282;2023-03-15T12:17:41;93296.59;;;10.98;54.06
6464;BME280;3265;42.694;23.282;2023-03-15T12:20:18;93300.53;;;11.05;54.46
6464;BME280;3265;42.694;23.282;2023-03-15T12:22:49;93300.25;;;11.07;54.38
6464;BME280;3265;42.694;23.282;2023-03-15T12:25:21;93287.22;;;10.97;54.71
6464;BME280;3265;42.694;23.282;2023-03-15T12:27:53;93292.91;;;10.89;54.80
6464;BME280;3265;42.694;23.282;2023-03-15T12:30:24;93291.28;;;10.77;55.44
6464;BME280;3265;42.694;23.282;2023-03-15T12:32:56;93287.09;;;10.71;56.42
6464;BME280;3265;42.694;23.282;2023-03-15T12:35:28;93290.75;;;10.70;57.23
6464;BME280;3265;42.694;23.282;2023-03-15T12:37:57;93273.56;;;10.64;55.93
6464;BME280;3265;42.694;23.282;2023-03-15T12:40:38;93281.63;;;10.68;55.12
6464;BME280;3265;42.694;23.282;2023-03-15T12:43:11;93283.19;;;10.69;54.37
6464;BME280;3265;42.694;23.282;2023-03-15T12:45:45;93289.19;;;10.69;53.39
6464;BME280;3265;42.694;23.282;2023-03-15T12:48:26;93285.28;;;10.72;52.79
6464;BME280;3265;42.694;23.282;2023-03-15T12:51:09;93283.22;;;10.74;52.57
6464;BME280;3265;42.694;23.282;2023-03-15T12:53:45;93283.75;;;10.76;51.76
6464;BME280;3265;42.694;23.282;2023-03-15T12:59:30;93277.28;;;10.83;51.51
6464;BME280;3265;42.694;23.282;2023-03-15T13:01:59;93271.28;;;10.78;50.92
6464;BME280;3265;42.694;23.282;2023-03-15T13:04:33;93278.56;;;10.76;51.21
6464;BME280;3265;42.694;23.282;2023-03-15T13:10:29;93274.91;;;10.72;50.82
6464;BME280;3265;42.694;23.282;2023-03-15T13:13:03;93269.97;;;10.70;50.62
6464;BME280;3265;42.694;23.282;2023-03-15T13:15:36;93272.28;;;10.67;50.69
6464;BME280;3265;42.694;23.282;2023-03-15T13:18:11;93264.47;;;10.67;50.97
6464;BME280;3265;42.694;23.282;2023-03-15T13:20:49;93266.59;;;10.70;50.57
6464;BME280;3265;42.694;23.282;2023-03-15T13:23:21;93261.88;;;10.67;50.20
6464;BME280;3265;42.694;23.282;2023-03-15T13:26:01;93266.53;;;10.65;50.63
6464;BME280;3265;42.694;23.282;2023-03-15T13:28:33;93267.09;;;10.72;51.26
6464;BME280;3265;42.694;23.282;2023-03-15T13:31:11;93273.88;;;10.73;51.24
6464;BME280;3265;42.694;23.282;2023-03-15T13:33:39;93279.31;;;10.71;51.46
6464;BME280;3265;42.694;23.282;2023-03-15T13:36:12;93290.47;;;10.72;51.51
6464;BME280;3265;42.694;23.282;2023-03-15T13:38:40;93282.66;;;10.67;51.71